createdAt,value
2019-01-19T00:01:18.156Z,21.77
2019-01-19T00:03:49.703Z,21.20
2019-01-19T00:06:36.160Z,20.87
2019-01-19T00:09:10.720Z,20.97
2019-01-19T00:11:50.535Z,21.03
2019-01-19T00:14:21.675Z,18.43
2019-01-19T00:17:09.665Z,19.20
2019-01-19T00:20:03.870Z,18.20
2019-01-19T00:22:35.554Z,17.17
2019-01-19T00:25:19.180Z,17.97
2019-01-19T00:27:50.868Z,16.67
2019-01-19T00:30:25.204Z,17.77
2019-01-19T00:33:14.856Z,17.60
2019-01-19T00:35:56.178Z,17.67
2019-01-19T00:38:44.073Z,17.70
2019-01-19T00:41:27.413Z,17.03
2019-01-19T00:43:58.949Z,17.43
2019-01-19T00:46:36.452Z,17.37
2019-01-19T00:49:07.998Z,17.20
2019-01-19T00:51:59.245Z,17.47
2019-01-19T00:54:30.790Z,15.67
2019-01-19T00:57:28.188Z,16.00
2019-01-19T00:59:56.731Z,16.50
2019-01-19T01:02:44.894Z,15.10
2019-01-19T01:05:16.445Z,15.43
2019-01-19T01:07:47.980Z,16.33
2019-01-19T01:10:22.265Z,14.70
2019-01-19T01:13:16.327Z,17.10
2019-01-19T01:16:05.927Z,16.40
2019-01-19T01:18:52.521Z,17.03
2019-01-19T01:21:43.684Z,17.13
2019-01-19T01:24:21.038Z,15.50
2019-01-19T01:27:01.335Z,16.37
2019-01-19T01:29:35.555Z,15.57
2019-01-19T01:32:34.105Z,16.90
2019-01-19T01:35:32.861Z,15.60
2019-01-19T01:38:14.523Z,16.90
2019-01-19T01:41:06.695Z,17.03
2019-01-19T01:43:43.958Z,16.10
2019-01-19T01:46:24.039Z,16.93
2019-01-19T01:49:04.251Z,16.47
2019-01-19T01:51:38.813Z,16.37
2019-01-19T01:54:13.402Z,16.23
2019-01-19T01:56:41.861Z,16.87
2019-01-19T01:59:25.342Z,16.30
2019-01-19T02:02:02.780Z,16.53
2019-01-19T02:05:04.727Z,16.73
2019-01-19T02:07:39.268Z,15.30
2019-01-19T02:10:19.894Z,16.87
2019-01-19T02:12:53.940Z,15.57
2019-01-19T02:15:30.821Z,16.40
2019-01-19T02:18:11.671Z,16.10
2019-01-19T02:20:49.341Z,16.10
2019-01-19T02:23:23.804Z,15.80
2019-01-19T02:26:00.907Z,15.37
2019-01-19T02:28:38.105Z,15.53
2019-01-19T02:31:25.516Z,15.20
2019-01-19T02:37:02.106Z,15.30
2019-01-19T02:39:42.133Z,14.50
2019-01-19T02:42:19.788Z,15.07
2019-01-19T02:45:03.317Z,15.53
2019-01-19T02:47:51.323Z,14.83
2019-01-19T02:50:38.416Z,15.50
2019-01-19T02:53:29.988Z,14.50
2019-01-19T02:56:04.490Z,14.80
2019-01-19T02:58:57.433Z,13.70
2019-01-19T03:01:56.007Z,14.63
2019-01-19T03:04:42.620Z,14.23
2019-01-19T03:07:46.043Z,14.57
2019-01-19T03:10:17.612Z,13.40
2019-01-19T03:13:06.941Z,13.23
2019-01-19T03:15:53.343Z,14.63
2019-01-19T03:18:44.690Z,13.23
2019-01-19T03:21:28.253Z,13.90
2019-01-19T03:24:05.353Z,13.47
2019-01-19T03:26:36.921Z,12.90
2019-01-19T03:29:14.478Z,13.07
2019-01-19T03:32:01.254Z,13.30
2019-01-19T03:34:53.673Z,12.77
2019-01-19T03:37:25.244Z,13.40
2019-01-19T03:40:13.416Z,12.93
2019-01-19T03:42:59.753Z,13.20
2019-01-19T03:45:43.333Z,12.97
2019-01-19T03:48:14.932Z,13.10
2019-01-19T03:51:01.735Z,12.97
2019-01-19T03:53:36.020Z,12.37
2019-01-19T03:56:16.312Z,12.63
2019-01-19T03:59:02.248Z,12.53
2019-01-19T04:01:36.612Z,12.33
2019-01-19T04:04:39.794Z,11.70
2019-01-19T04:07:35.616Z,11.80
2019-01-19T04:10:31.293Z,12.27
2019-01-19T04:13:11.326Z,11.43
2019-01-19T04:16:14.552Z,11.63
2019-01-19T04:18:55.189Z,10.93
2019-01-19T04:21:38.893Z,11.00
2019-01-19T04:24:15.948Z,11.10
2019-01-19T04:26:44.791Z,10.63
2019-01-19T04:29:13.377Z,10.63
2019-01-19T04:31:41.938Z,10.27
2019-01-19T04:34:10.751Z,10.07
2019-01-19T04:36:39.508Z,10.40
2019-01-19T04:39:09.876Z,9.63
2019-01-19T04:41:38.512Z,9.93
2019-01-19T04:44:07.011Z,10.00
2019-01-19T04:46:35.493Z,9.73
2019-01-19T04:49:04.087Z,9.97
2019-01-19T04:51:32.582Z,10.00
2019-01-19T04:54:01.149Z,10.47
2019-01-19T04:56:29.665Z,9.37
2019-01-19T04:58:58.172Z,10.13
2019-01-19T05:01:26.728Z,9.43
2019-01-19T05:03:55.189Z,10.30
2019-01-19T05:06:30.336Z,9.60
2019-01-19T05:08:53.899Z,9.07
2019-01-19T05:11:22.404Z,9.70
2019-01-19T05:13:50.888Z,9.83
2019-01-19T05:16:19.352Z,9.10
2019-01-19T05:18:47.857Z,9.47
2019-01-19T05:21:16.945Z,9.63
2019-01-19T05:23:45.541Z,9.17
2019-01-19T05:26:14.107Z,9.00
2019-01-19T05:28:42.589Z,9.67
2019-01-19T05:31:11.196Z,9.80
2019-01-19T05:33:39.660Z,9.77
2019-01-19T05:36:08.149Z,9.83
2019-01-19T05:38:36.708Z,10.23
2019-01-19T05:41:05.241Z,9.80
2019-01-19T05:43:33.768Z,10.23
2019-01-19T05:46:02.300Z,10.30
2019-01-19T05:48:30.824Z,10.10
2019-01-19T05:50:59.350Z,9.97
2019-01-19T05:53:27.821Z,9.83
2019-01-19T05:55:56.279Z,9.50
2019-01-19T05:58:24.855Z,9.97
2019-01-19T06:00:53.313Z,9.67
2019-01-19T06:03:21.795Z,10.10
2019-01-19T06:05:50.521Z,10.33
2019-01-19T06:08:18.995Z,10.03
2019-01-19T06:10:47.549Z,10.70
2019-01-19T06:13:16.044Z,9.73
2019-01-19T06:15:44.506Z,10.20
2019-01-19T06:18:14.758Z,10.10
2019-01-19T06:20:43.330Z,10.50
2019-01-19T06:23:11.803Z,9.67
2019-01-19T06:25:40.260Z,9.80
2019-01-19T06:28:08.797Z,10.23
2019-01-19T06:30:37.320Z,9.83
2019-01-19T06:33:05.799Z,9.43
2019-01-19T06:35:53.712Z,10.47
2019-01-19T06:38:22.173Z,9.70
2019-01-19T06:40:50.743Z,10.67
2019-01-19T06:43:19.279Z,10.50
2019-01-19T06:45:47.744Z,10.30
2019-01-19T06:48:16.248Z,9.90
2019-01-19T06:50:44.712Z,10.20
2019-01-19T06:53:13.177Z,10.33
2019-01-19T06:55:41.701Z,10.10
2019-01-19T06:58:10.157Z,10.40
2019-01-19T07:00:38.745Z,10.50
2019-01-19T07:03:07.264Z,10.33
2019-01-19T07:05:35.736Z,9.90
2019-01-19T07:08:04.293Z,10.30
2019-01-19T07:10:32.757Z,10.80
2019-01-19T07:13:01.218Z,10.57
2019-01-19T07:15:29.703Z,10.23
2019-01-19T07:17:58.233Z,10.17
2019-01-19T07:20:28.833Z,10.70
2019-01-19T07:22:57.351Z,10.30
2019-01-19T07:25:25.849Z,10.73
2019-01-19T07:27:54.318Z,11.47
2019-01-19T07:30:23.309Z,9.87
2019-01-19T07:32:51.981Z,10.97
2019-01-19T07:35:39.810Z,10.13
2019-01-19T07:38:08.308Z,10.30
2019-01-19T07:40:36.912Z,10.87
2019-01-19T07:43:05.755Z,10.93
2019-01-19T07:45:34.290Z,10.83
2019-01-19T07:48:03.394Z,11.33
2019-01-19T07:50:31.983Z,11.00
2019-01-19T07:53:00.509Z,11.20
2019-01-19T07:55:29.109Z,10.37
2019-01-19T07:57:57.677Z,11.47
2019-01-19T08:00:31.759Z,11.80
2019-01-19T08:03:00.290Z,10.40
2019-01-19T08:05:28.936Z,10.80
2019-01-19T08:07:59.124Z,11.80
2019-01-19T08:10:27.688Z,12.83
2019-01-19T08:12:56.194Z,11.93
2019-01-19T08:15:26.607Z,11.80
2019-01-19T08:17:55.213Z,12.13
2019-01-19T08:20:23.729Z,12.30
2019-01-19T08:22:52.309Z,12.67
2019-01-19T08:25:21.076Z,12.80
2019-01-19T08:27:49.560Z,12.80
2019-01-19T08:30:23.200Z,13.63
2019-01-19T08:32:51.832Z,12.87
2019-01-19T08:35:20.488Z,12.53
2019-01-19T08:37:49.018Z,13.27
2019-01-19T08:40:20.304Z,13.07
2019-01-19T08:42:50.513Z,13.10
2019-01-19T08:45:19.843Z,14.03
2019-01-19T08:47:48.312Z,15.13
2019-01-19T08:50:16.849Z,14.73
2019-01-19T08:52:45.385Z,13.20
2019-01-19T08:55:13.850Z,14.00
2019-01-19T08:57:42.368Z,15.40
2019-01-19T09:00:13.933Z,14.03
2019-01-19T09:02:42.464Z,15.07
2019-01-19T09:05:11.803Z,14.70
2019-01-19T09:07:40.333Z,15.63
2019-01-19T09:10:19.377Z,14.93
2019-01-19T09:12:47.924Z,16.03
2019-01-19T09:15:21.960Z,16.00
2019-01-19T09:17:50.568Z,14.53
2019-01-19T09:20:19.293Z,14.93
2019-01-19T09:22:55.484Z,16.70
2019-01-19T09:25:24.167Z,16.73
2019-01-19T09:27:52.708Z,15.47
2019-01-19T09:30:27.469Z,17.30
2019-01-19T09:32:55.965Z,16.07
2019-01-19T09:35:24.516Z,17.33
2019-01-19T09:37:53.120Z,16.30
2019-01-19T09:40:21.942Z,17.13
2019-01-19T09:42:50.413Z,17.53
2019-01-19T09:45:20.311Z,15.27
2019-01-19T09:47:48.794Z,15.63
2019-01-19T09:50:19.471Z,17.60
2019-01-19T09:52:48.002Z,15.83
2019-01-19T09:55:16.727Z,15.37
2019-01-19T09:57:45.420Z,16.60
2019-01-19T10:00:20.043Z,16.87
2019-01-19T10:02:48.987Z,16.30
2019-01-19T10:05:23.681Z,16.77
2019-01-19T10:07:52.636Z,17.60
2019-01-19T10:10:21.309Z,15.93
2019-01-19T10:12:53.450Z,15.13
2019-01-19T10:15:22.768Z,15.87
2019-01-19T10:17:51.486Z,15.63
2019-01-19T10:20:23.158Z,17.17
2019-01-19T10:22:51.717Z,16.90
2019-01-19T10:25:20.228Z,16.90
2019-01-19T10:27:48.714Z,17.60
2019-01-19T10:30:22.507Z,16.23
2019-01-19T10:32:51.025Z,16.13
2019-01-19T10:35:19.482Z,15.00
2019-01-19T10:37:48.159Z,15.43
2019-01-19T10:40:18.079Z,16.40
2019-01-19T10:42:46.620Z,15.80
2019-01-19T10:45:23.565Z,14.23
2019-01-19T10:47:52.099Z,16.33
2019-01-19T10:50:20.748Z,15.60
2019-01-19T10:52:49.281Z,14.90
2019-01-19T10:55:20.368Z,14.63
2019-01-19T10:57:48.952Z,14.97
2019-01-19T11:00:20.511Z,15.10
2019-01-19T11:02:49.178Z,14.10
2019-01-19T11:05:17.662Z,14.43
2019-01-19T11:07:47.782Z,14.80
2019-01-19T11:10:19.104Z,15.27
2019-01-19T11:12:47.598Z,15.00
2019-01-19T11:15:17.861Z,14.73
2019-01-19T11:17:46.581Z,14.10
2019-01-19T11:20:20.480Z,14.17
2019-01-19T11:22:51.788Z,15.20
2019-01-19T11:25:20.405Z,13.27
2019-01-19T11:27:50.525Z,13.27
2019-01-19T11:30:24.553Z,13.70
2019-01-19T11:32:53.167Z,14.20
2019-01-19T11:35:21.886Z,12.77
2019-01-19T11:37:50.474Z,13.93
2019-01-19T11:40:21.181Z,13.50
2019-01-19T11:42:49.664Z,13.30
2019-01-19T11:45:20.660Z,14.13
2019-01-19T11:47:49.209Z,12.23
2019-01-19T11:50:17.968Z,13.67
2019-01-19T11:52:47.045Z,11.93
2019-01-19T11:55:19.241Z,10.70
2019-01-19T11:57:52.633Z,12.67
2019-01-19T12:00:27.108Z,12.93
2019-01-19T12:02:55.641Z,12.27
2019-01-19T12:05:24.205Z,12.47
2019-01-19T12:07:52.740Z,11.90
2019-01-19T12:10:24.305Z,11.53
2019-01-19T12:12:52.848Z,12.03
2019-01-19T12:15:21.387Z,11.90
2019-01-19T12:17:49.924Z,12.10
2019-01-19T12:20:36.116Z,12.80
2019-01-19T12:23:04.720Z,11.80
2019-01-19T12:25:33.274Z,12.73
2019-01-19T12:28:01.844Z,11.67
2019-01-19T12:30:32.047Z,10.30
2019-01-19T12:33:00.622Z,10.27
2019-01-19T12:35:29.572Z,11.20
2019-01-19T12:37:59.312Z,10.23
2019-01-19T12:40:29.772Z,10.90
2019-01-19T12:43:04.180Z,11.00
2019-01-19T12:45:44.642Z,10.27
2019-01-19T12:48:18.348Z,10.20
2019-01-19T12:50:46.933Z,9.83
2019-01-19T12:53:16.016Z,10.07
2019-01-19T12:55:44.604Z,9.87
2019-01-19T12:58:13.278Z,9.93
2019-01-19T13:00:41.760Z,9.03
2019-01-19T13:03:10.321Z,10.00
2019-01-19T13:05:48.093Z,9.47
2019-01-19T13:08:22.552Z,10.07
2019-01-19T13:11:11.012Z,9.30
2019-01-19T13:13:42.352Z,9.40
2019-01-19T13:16:28.656Z,9.47
2019-01-19T13:19:15.220Z,9.07
2019-01-19T13:22:12.341Z,9.37
2019-01-19T13:24:52.751Z,9.17
2019-01-19T13:27:45.258Z,9.57
2019-01-19T13:30:43.989Z,8.50
2019-01-19T13:33:18.570Z,9.03
2019-01-19T13:36:10.701Z,8.70
2019-01-19T13:38:54.169Z,9.50
2019-01-19T13:41:37.655Z,8.70
2019-01-19T13:44:27.300Z,8.27
2019-01-19T13:47:08.054Z,8.33
2019-01-19T13:49:45.533Z,7.20
2019-01-19T13:52:20.200Z,7.93
2019-01-19T13:55:10.057Z,7.77
2019-01-19T13:57:41.648Z,8.07
2019-01-19T14:00:22.193Z,8.00
2019-01-19T14:02:53.768Z,7.43
2019-01-19T14:05:46.257Z,7.97
2019-01-19T14:08:34.049Z,7.80
2019-01-19T14:11:26.801Z,7.67
2019-01-19T14:14:17.624Z,8.03
2019-01-19T14:16:50.833Z,7.50
2019-01-19T14:19:24.940Z,7.60
2019-01-19T14:21:59.441Z,8.07
2019-01-19T14:24:31.019Z,8.27
2019-01-19T14:27:32.861Z,7.43
2019-01-19T14:30:04.431Z,7.07
2019-01-19T14:32:36.057Z,7.90
2019-01-19T14:35:25.656Z,7.43
2019-01-19T14:37:59.898Z,7.47
2019-01-19T14:40:40.372Z,7.57
2019-01-19T14:43:23.436Z,7.23
2019-01-19T14:45:57.748Z,7.30
2019-01-19T14:48:29.276Z,8.33
2019-01-19T14:51:25.593Z,8.33
2019-01-19T14:54:27.041Z,8.10
2019-01-19T14:57:01.252Z,8.50
2019-01-19T14:59:38.851Z,7.83
2019-01-19T15:02:28.205Z,8.30
2019-01-19T15:05:08.437Z,8.27
2019-01-19T15:07:55.076Z,7.53
2019-01-19T15:10:35.228Z,8.00
2019-01-19T15:13:24.519Z,6.27
2019-01-19T15:16:31.120Z,7.30
2019-01-19T15:19:22.087Z,7.57
2019-01-19T15:22:03.365Z,7.50
2019-01-19T15:24:49.316Z,7.50
2019-01-19T15:27:23.792Z,7.87
2019-01-19T15:29:58.185Z,8.17
2019-01-19T15:32:55.400Z,8.50
2019-01-19T15:35:51.161Z,7.93
2019-01-19T15:38:31.326Z,7.90
2019-01-19T15:41:12.070Z,7.57
2019-01-19T15:43:46.834Z,7.73
2019-01-19T15:46:36.444Z,8.33
2019-01-19T15:49:23.057Z,7.80
2019-01-19T15:52:12.390Z,8.10
2019-01-19T15:54:58.953Z,7.50
2019-01-19T15:57:33.271Z,6.73
2019-01-19T16:00:25.844Z,8.30
2019-01-19T16:02:57.564Z,7.53
2019-01-19T16:05:38.137Z,7.57
2019-01-19T16:08:30.245Z,7.53
2019-01-19T16:11:28.794Z,6.80
2019-01-19T16:14:12.066Z,7.30
2019-01-19T16:16:49.284Z,7.03
2019-01-19T16:19:29.960Z,7.87
2019-01-19T16:22:21.060Z,7.37
2019-01-19T16:25:01.290Z,8.50
2019-01-19T16:27:48.498Z,7.73
2019-01-19T16:30:27.562Z,8.00
2019-01-19T16:33:33.039Z,7.00
2019-01-19T16:36:07.477Z,7.93
2019-01-19T16:38:53.949Z,7.20
2019-01-19T16:41:28.172Z,7.70
2019-01-19T16:44:16.125Z,7.63
2019-01-19T16:47:05.816Z,7.77
2019-01-19T16:49:46.322Z,7.77
2019-01-19T16:52:32.656Z,7.80
2019-01-19T16:55:19.259Z,7.63
2019-01-19T16:57:57.607Z,8.20
2019-01-19T17:00:29.213Z,8.50
2019-01-19T17:03:12.899Z,8.57
2019-01-19T17:05:47.278Z,7.63
2019-01-19T17:08:27.645Z,7.10
2019-01-19T17:11:02.293Z,8.47
2019-01-19T17:13:36.578Z,8.40
2019-01-19T17:16:17.286Z,7.33
2019-01-19T17:19:10.157Z,8.40
2019-01-19T17:22:02.644Z,8.03
2019-01-19T17:24:50.601Z,7.80
2019-01-19T17:27:31.164Z,8.10
2019-01-19T17:30:02.844Z,7.63
2019-01-19T17:32:40.189Z,8.23
2019-01-19T17:35:26.875Z,8.00
2019-01-19T17:37:58.401Z,8.00
2019-01-19T17:40:38.860Z,7.43
2019-01-19T17:43:16.324Z,8.63
2019-01-19T17:46:09.207Z,7.47
2019-01-19T17:48:43.697Z,7.77
2019-01-19T17:51:27.017Z,7.73
2019-01-19T17:54:13.461Z,7.63
2019-01-19T17:56:45.051Z,8.17
2019-01-19T17:59:22.303Z,8.03
2019-01-19T18:02:10.479Z,7.27
2019-01-19T18:04:53.972Z,6.83
2019-01-19T18:07:31.385Z,6.73
2019-01-19T18:10:05.656Z,7.27
2019-01-19T18:12:39.812Z,6.90
2019-01-19T18:15:13.993Z,7.23
2019-01-19T18:17:49.344Z,7.23
2019-01-19T18:20:23.903Z,7.53
2019-01-19T18:23:04.308Z,7.43
2019-01-19T18:25:59.916Z,7.30
2019-01-19T18:28:34.799Z,7.10
2019-01-19T18:31:34.578Z,7.07
2019-01-19T18:34:08.649Z,6.70
2019-01-19T18:36:52.151Z,7.13
2019-01-19T18:39:41.538Z,6.93
2019-01-19T18:42:14.119Z,7.00
2019-01-19T18:45:00.444Z,7.27
2019-01-19T18:47:38.013Z,7.67
2019-01-19T18:50:26.474Z,8.03
2019-01-19T18:53:09.889Z,7.33
2019-01-19T18:55:50.016Z,7.43
2019-01-19T18:58:49.901Z,7.20
2019-01-19T19:01:42.615Z,7.63
2019-01-19T19:04:33.549Z,7.40
2019-01-19T19:07:13.886Z,7.40
2019-01-19T19:09:48.295Z,7.90
2019-01-19T19:12:39.387Z,8.00
2019-01-19T19:15:25.998Z,7.63
2019-01-19T19:18:17.152Z,7.13
2019-01-19T19:20:51.344Z,8.40
2019-01-19T19:23:22.989Z,8.80
2019-01-19T19:26:01.194Z,8.17
2019-01-19T19:28:52.424Z,8.60
2019-01-19T19:31:24.008Z,7.87
2019-01-19T19:34:01.576Z,8.43
2019-01-19T19:36:48.350Z,7.80
2019-01-19T19:39:22.647Z,7.47
2019-01-19T19:42:24.359Z,7.77
2019-01-19T19:45:28.785Z,6.83
2019-01-19T19:48:00.312Z,7.83
2019-01-19T19:50:34.687Z,7.67
2019-01-19T19:53:03.899Z,7.70
2019-01-19T19:55:31.308Z,7.87
2019-01-19T19:57:59.847Z,7.80
2019-01-19T20:00:28.905Z,7.87
2019-01-19T20:02:57.600Z,8.03
2019-01-19T20:05:26.100Z,8.20
2019-01-19T20:07:54.569Z,8.23
2019-01-19T20:10:23.094Z,7.93
2019-01-19T20:12:51.580Z,7.47
2019-01-19T20:15:20.046Z,7.33
2019-01-19T20:17:48.500Z,7.63
2019-01-19T20:20:17.201Z,8.03
2019-01-19T20:22:45.661Z,7.43
2019-01-19T20:25:14.122Z,7.40
2019-01-19T20:27:42.681Z,7.23
2019-01-19T20:30:14.593Z,7.07
2019-01-19T20:32:43.128Z,6.20
2019-01-19T20:35:11.761Z,7.40
2019-01-19T20:37:40.321Z,7.33
2019-01-19T20:40:10.622Z,7.17
2019-01-19T20:42:39.081Z,7.57
2019-01-19T20:45:12.619Z,6.80
2019-01-19T20:47:41.087Z,7.47
2019-01-19T20:50:13.246Z,7.37
2019-01-19T20:52:41.808Z,7.20
2019-01-19T20:55:11.508Z,7.30
2019-01-19T20:57:40.100Z,6.50
2019-01-19T21:00:17.359Z,6.87
2019-01-19T21:02:45.900Z,6.27
2019-01-19T21:05:14.375Z,7.07
2019-01-19T21:07:42.927Z,6.87
2019-01-19T21:10:11.839Z,7.30
2019-01-19T21:12:40.381Z,6.70
2019-01-19T21:15:12.013Z,7.13
2019-01-19T21:17:40.471Z,7.70
2019-01-19T21:20:11.518Z,7.00
2019-01-19T21:22:40.030Z,6.23
2019-01-19T21:25:10.326Z,7.30
2019-01-19T21:27:38.861Z,6.50
2019-01-19T21:30:10.842Z,6.70
2019-01-19T21:32:39.311Z,7.07
2019-01-19T21:35:08.033Z,7.07
2019-01-19T21:37:36.520Z,6.87
2019-01-19T21:40:08.095Z,6.83
2019-01-19T21:42:36.568Z,6.77
2019-01-19T21:45:11.140Z,7.10
2019-01-19T21:47:39.656Z,6.53
2019-01-19T21:50:10.481Z,6.33
2019-01-19T21:52:38.970Z,6.77
2019-01-19T21:55:09.664Z,6.97
2019-01-19T21:57:38.288Z,6.83
2019-01-19T22:00:09.821Z,6.80
2019-01-19T22:02:38.368Z,7.10
2019-01-19T22:05:08.168Z,7.03
2019-01-19T22:07:36.700Z,6.23
2019-01-19T22:10:08.320Z,7.00
2019-01-19T22:12:36.796Z,7.60
2019-01-19T22:15:08.381Z,7.77
2019-01-19T22:17:39.762Z,7.50
2019-01-19T22:20:10.008Z,6.93
2019-01-19T22:22:38.520Z,6.97
2019-01-19T22:25:08.324Z,6.70
2019-01-19T22:27:38.076Z,7.03
2019-01-19T22:30:12.279Z,6.87
2019-01-19T22:32:40.916Z,6.90
2019-01-19T22:35:10.755Z,7.47
2019-01-19T22:37:40.086Z,7.33
2019-01-19T22:40:11.846Z,7.10
2019-01-19T22:42:41.387Z,7.57
2019-01-19T22:45:12.056Z,7.77
2019-01-19T22:47:40.593Z,7.40
2019-01-19T22:50:16.776Z,7.87
2019-01-19T22:52:45.314Z,8.30
2019-01-19T22:55:15.546Z,7.80
2019-01-19T22:57:44.156Z,8.07
2019-01-19T23:00:32.145Z,8.30
2019-01-19T23:03:00.620Z,7.73
2019-01-19T23:05:29.073Z,7.40
2019-01-19T23:07:57.551Z,7.57
2019-01-19T23:10:26.180Z,7.50
2019-01-19T23:12:54.645Z,7.90
2019-01-19T23:15:23.100Z,7.87
2019-01-19T23:17:51.662Z,8.10
2019-01-19T23:20:20.193Z,7.83
2019-01-19T23:22:48.870Z,8.37
2019-01-19T23:25:17.385Z,6.63
2019-01-19T23:27:45.845Z,7.00
2019-01-19T23:30:15.750Z,8.17
2019-01-19T23:32:44.248Z,7.70
2019-01-19T23:35:12.846Z,7.60
2019-01-19T23:37:41.474Z,7.03
2019-01-19T23:40:12.943Z,7.25
2019-01-19T23:42:47.165Z,7.00
2019-01-19T23:45:11.816Z,7.20
2019-01-19T23:47:40.453Z,6.90
2019-01-19T23:50:10.455Z,7.00
2019-01-19T23:52:38.908Z,6.60
2019-01-19T23:55:07.940Z,7.23
2019-01-19T23:57:36.393Z,6.93
